Baytown, Texas
Current Conditions -  °F | °C
As of 8:50 PM on Saturday 20 Dec 2014 (Local Time) from KEFD Reporting Station
Scattered Clouds Scattered Clouds  
Wind Chill: 52°   Ceiling: Unl
Heat Index: 52°   Visibility: 10mi
Dew Point: 48°   Wind: 0mph
Humidity: 88%   Direction: NA
Pressure: 30.19"   Gusts: NA
Location:  29.73°N, 95°W
Report Text: KEFD 210250Z 00000KT 10SM SCT250 11/09 A3019
Loading
Personal Weather Stations






























Interactive Weather Map New forecast layout! Learn more

10-Day Weather Forecast

Advertisements
Track Severe Weather on mobile